DIAP/ABJ METAR and TAF weather

Enter ICAO airport designator
Station Type Date Time Source
DIAP METAR 2022/01/26 13:30 UTC NOAA

DIAP 261330Z 23010KT 7000 FEW020 32/22 Q1009 NOSIG


Station Type Date Time Source
DIAP Decoded METAR 2022/01/26 13:30 UTC NOAA

Abidjan, Cote d'Ivoire (DIAP) 05-15N 003-56W 8M
Jan 26, 2022 - 08:30 AM EST / 2022.01.26 1330 UTC
Wind: from the SW (230 degrees) at 12 MPH (10 KT):0
Visibility: 4 mile(s):0
Sky conditions: mostly clear
Temperature: 89 F (32 C)
Heat index: 95.0 F (35.0 C):1
Dew Point: 71 F (22 C)
Relative Humidity: 55%
Pressure (altimeter): 29.80 in. Hg (1009 hPa)
ob: DIAP 261330Z 23010KT 7000 FEW020 32/22 Q1009 NOSIG
cycle: 13

Station Type Date Time Source
DIAP TAF 2022/01/26 12:42 UTC NOAA

TAF TAF DIAP 261100Z 2612/2718 26008KT 7000 FEW020
TEMPO 2705/2708 3000 BR

Example: see airport list